Time;durP1;ratioP1;P1;durP2;ratioP2;P2;SDS_P1;SDS_P2;PMS_P1;PMS_P2;Temp;Humidity;BMP_temperature;BMP_pressure;BME280_temperature;BME280_humidity;BME280_pressure;Samples;Min_cycle;Max_cycle;Signal;HPM_P1;HPM_P2
2023/05/27 00:01:33;;;;;;;10.40;4.10;;;10.00;99.90;;;;;;4944595;28;20474;-71
2023/05/27 00:04:01;;;;;;;7.60;4.50;;;9.90;99.90;;;;;;4949195;28;20494;-72
2023/05/27 00:06:29;;;;;;;12.80;4.67;;;9.90;99.90;;;;;;4939549;28;20498;-71
2023/05/27 00:08:59;;;;;;;12.10;4.73;;;9.90;99.90;;;;;;4938601;28;20569;-71
2023/05/27 00:11:27;;;;;;;7.70;4.17;;;9.80;99.90;;;;;;4938366;28;20633;-71
2023/05/27 00:13:55;;;;;;;9.93;4.50;;;9.80;99.90;;;;;;4936934;28;20565;-71
2023/05/27 00:16:23;;;;;;;9.13;4.53;;;9.80;99.90;;;;;;4939830;28;20540;-71
2023/05/27 00:18:52;;;;;;;10.23;5.00;;;9.70;99.90;;;;;;4937966;28;21006;-70
2023/05/27 00:21:20;;;;;;;11.17;4.50;;;9.70;99.90;;;;;;4941966;28;20477;-70
2023/05/27 00:23:51;;;;;;;8.60;4.50;;;9.70;99.90;;;;;;4937957;28;20528;-71
2023/05/27 00:26:21;;;;;;;7.10;4.63;;;9.60;99.90;;;;;;4943017;28;21027;-72
2023/05/27 00:28:49;;;;;;;11.23;4.27;;;9.60;99.90;;;;;;4944254;28;21832;-71
2023/05/27 00:31:17;;;;;;;10.60;4.57;;;9.60;99.90;;;;;;4939621;28;20494;-71
2023/05/27 00:33:45;;;;;;;12.13;4.93;;;9.60;99.90;;;;;;4943219;28;20527;-71
2023/05/27 00:36:13;;;;;;;14.20;5.03;;;9.50;99.90;;;;;;4939518;28;21241;-72
2023/05/27 00:38:42;;;;;;;9.37;4.37;;;9.50;99.90;;;;;;4937130;28;21711;-71
2023/05/27 00:41:12;;;;;;;10.77;4.70;;;9.50;99.90;;;;;;4938379;28;20622;-71
2023/05/27 00:43:42;;;;;;;11.23;4.50;;;9.40;99.90;;;;;;4942415;28;20527;-71
2023/05/27 00:46:10;;;;;;;9.40;5.23;;;9.50;99.90;;;;;;4940023;28;20481;-74
2023/05/27 00:48:38;;;;;;;7.80;4.87;;;9.40;99.90;;;;;;4939368;28;20473;-74
2023/05/27 00:51:06;;;;;;;7.57;4.23;;;9.40;99.90;;;;;;4939788;28;20506;-71
2023/05/27 00:53:40;;;;;;;7.43;4.30;;;9.40;99.90;;;;;;4939987;28;21622;-71
2023/05/27 00:56:08;;;;;;;8.83;4.13;;;9.30;99.90;;;;;;4939301;28;20510;-71
2023/05/27 00:58:37;;;;;;;8.07;4.90;;;9.20;99.90;;;;;;4938958;28;22342;-71
2023/05/27 01:01:07;;;;;;;12.50;5.37;;;9.20;99.90;;;;;;4941354;28;20943;-71
2023/05/27 01:03:35;;;;;;;12.53;4.60;;;9.20;99.90;;;;;;4941418;28;20494;-72
2023/05/27 01:06:15;;;;;;;11.40;5.07;;;9.20;99.90;;;;;;4932575;28;20497;-73
2023/05/27 01:08:55;;;;;;;7.70;5.20;;;9.10;99.90;;;;;;4942865;28;20481;-72
2023/05/27 01:11:28;;;;;;;6.80;4.57;;;9.10;99.90;;;;;;4942330;28;20496;-72
2023/05/27 01:14:00;;;;;;;10.50;5.20;;;9.10;99.90;;;;;;4944884;28;20522;-73
2023/05/27 01:16:31;;;;;;;9.73;4.13;;;9.10;99.90;;;;;;4944392;28;20581;-72
2023/05/27 01:19:02;;;;;;;10.50;4.97;;;9.10;99.90;;;;;;4942483;28;20470;-73
2023/05/27 01:21:32;;;;;;;12.00;4.70;;;9.10;99.90;;;;;;4953474;28;20902;-73
2023/05/27 01:24:06;;;;;;;7.33;4.27;;;9.10;99.90;;;;;;4952529;28;20610;-73
2023/05/27 01:26:34;;;;;;;12.93;4.80;;;9.00;99.90;;;;;;4946823;28;20488;-71
2023/05/27 01:29:02;;;;;;;11.23;5.80;;;9.00;99.90;;;;;;4948014;28;20511;-71
2023/05/27 01:31:36;;;;;;;8.30;4.87;;;9.00;99.90;;;;;;4940932;28;20578;-73
2023/05/27 01:34:09;;;;;;;7.57;4.47;;;8.90;99.90;;;;;;4945769;28;20498;-73
2023/05/27 01:36:43;;;;;;;11.60;5.20;;;8.90;99.90;;;;;;4942673;28;20493;-73
2023/05/27 01:39:13;;;;;;;10.57;5.17;;;8.90;99.90;;;;;;4938967;28;20480;-72
2023/05/27 01:41:43;;;;;;;9.30;5.10;;;8.90;99.90;;;;;;4941275;28;20606;-72
2023/05/27 01:44:11;;;;;;;12.13;5.10;;;8.80;99.90;;;;;;4938343;28;20508;-72
2023/05/27 01:46:43;;;;;;;7.57;4.30;;;8.80;99.90;;;;;;4936138;28;20494;-72
2023/05/27 01:49:11;;;;;;;7.53;4.37;;;8.80;99.90;;;;;;4935498;28;22534;-72
2023/05/27 01:51:39;;;;;;;7.60;5.60;;;8.80;99.90;;;;;;4938612;28;20503;-72
2023/05/27 01:54:07;;;;;;;8.53;4.60;;;8.80;99.90;;;;;;4937552;28;20507;-72
2023/05/27 01:56:36;;;;;;;8.67;5.10;;;8.70;99.90;;;;;;4941913;28;20517;-73
2023/05/27 01:59:04;;;;;;;8.07;4.30;;;8.70;99.90;;;;;;4942498;28;20601;-73
2023/05/27 02:01:33;;;;;;;6.83;4.50;;;8.70;99.90;;;;;;4945609;28;20570;-73
2023/05/27 02:04:01;;;;;;;10.67;4.83;;;8.70;99.90;;;;;;4935696;28;20501;-71
2023/05/27 02:06:30;;;;;;;10.13;4.50;;;8.70;99.90;;;;;;4936339;28;20577;-72
2023/05/27 02:08:58;;;;;;;9.53;5.57;;;8.60;99.90;;;;;;4950479;28;20482;-72
2023/05/27 02:11:26;;;;;;;12.77;5.10;;;8.60;99.90;;;;;;4941091;28;20513;-72
2023/05/27 02:13:56;;;;;;;12.80;5.53;;;8.60;99.90;;;;;;4939200;28;21393;-72
2023/05/27 02:16:25;;;;;;;12.43;5.63;;;8.60;99.90;;;;;;4937572;28;20493;-72
2023/05/27 02:18:54;;;;;;;8.70;4.90;;;8.50;99.90;;;;;;4936310;28;21648;-71
2023/05/27 02:21:22;;;;;;;12.33;5.93;;;8.50;99.90;;;;;;4938823;28;20592;-72
2023/05/27 02:23:51;;;;;;;6.63;4.40;;;8.50;99.90;;;;;;4942113;28;20502;-72
2023/05/27 02:26:19;;;;;;;11.90;5.20;;;8.50;99.90;;;;;;4937129;28;20515;-71
2023/05/27 02:28:47;;;;;;;8.17;4.57;;;8.40;99.90;;;;;;4935211;28;20485;-71
2023/05/27 02:31:17;;;;;;;6.80;4.60;;;8.40;99.90;;;;;;4937106;28;21002;-72
2023/05/27 02:33:45;;;;;;;8.30;4.40;;;8.40;99.90;;;;;;4942006;28;20610;-71
2023/05/27 02:36:13;;;;;;;8.67;5.10;;;8.40;99.90;;;;;;4941738;28;22137;-71
2023/05/27 02:38:41;;;;;;;11.50;5.67;;;8.30;99.90;;;;;;4945549;28;20470;-72
2023/05/27 02:41:09;;;;;;;9.37;5.33;;;8.30;99.90;;;;;;4954845;28;20489;-71
2023/05/27 02:43:37;;;;;;;9.37;5.00;;;8.30;99.90;;;;;;4936318;28;20489;-71
2023/05/27 02:46:06;;;;;;;9.50;5.30;;;8.30;99.90;;;;;;4937303;28;20489;-73
2023/05/27 02:48:35;;;;;;;9.27;5.10;;;8.30;99.90;;;;;;4941829;28;20506;-71
2023/05/27 02:51:03;;;;;;;9.37;5.30;;;8.20;99.90;;;;;;4938687;28;20510;-73
2023/05/27 02:53:32;;;;;;;7.50;4.80;;;8.20;99.90;;;;;;4948043;28;20508;-70
2023/05/27 02:56:01;;;;;;;10.93;5.50;;;8.20;99.90;;;;;;4948231;28;20502;-71
2023/05/27 02:58:29;;;;;;;8.37;4.83;;;8.30;99.90;;;;;;4943924;28;20481;-71
2023/05/27 03:01:00;;;;;;;9.43;4.33;;;8.20;99.90;;;;;;4944306;28;21065;-70
2023/05/27 03:03:29;;;;;;;8.37;5.07;;;8.20;99.90;;;;;;4943696;28;21066;-73
2023/05/27 03:06:06;;;;;;;10.83;4.80;;;8.10;99.90;;;;;;4943459;28;20570;-70
2023/05/27 03:08:34;;;;;;;9.37;5.00;;;8.10;99.90;;;;;;4943955;28;20482;-71
2023/05/27 03:11:02;;;;;;;8.07;4.90;;;8.10;99.90;;;;;;4944213;28;20480;-72
2023/05/27 03:13:30;;;;;;;8.67;5.10;;;8.10;99.90;;;;;;4943338;28;21101;-71
2023/05/27 03:15:58;;;;;;;9.00;5.47;;;8.00;99.90;;;;;;4943070;28;20581;-71
2023/05/27 03:18:28;;;;;;;9.33;5.47;;;8.00;99.90;;;;;;4946933;28;20490;-71
2023/05/27 03:21:10;;;;;;;7.20;4.77;;;8.00;99.90;;;;;;4948278;28;20566;-70
2023/05/27 03:23:38;;;;;;;8.30;4.90;;;8.00;99.90;;;;;;4946419;28;20525;-73
2023/05/27 03:26:06;;;;;;;15.50;5.10;;;8.00;99.90;;;;;;4944256;28;20560;-72
2023/05/27 03:28:35;;;;;;;7.70;4.50;;;8.00;99.90;;;;;;4952091;28;20510;-71
2023/05/27 03:31:03;;;;;;;6.57;5.00;;;8.00;99.90;;;;;;4946709;28;20474;-71
2023/05/27 03:33:31;;;;;;;9.93;5.30;;;7.90;99.90;;;;;;4944135;28;20512;-70
2023/05/27 03:35:59;;;;;;;8.63;5.50;;;8.00;99.90;;;;;;4944309;28;20485;-71
2023/05/27 03:38:29;;;;;;;10.27;4.53;;;8.00;99.90;;;;;;4948243;28;20481;-71
2023/05/27 03:40:57;;;;;;;10.80;5.20;;;8.00;99.90;;;;;;4948864;28;20923;-71
2023/05/27 03:43:25;;;;;;;7.90;4.33;;;8.00;99.90;;;;;;4942041;28;20573;-71
2023/05/27 03:45:53;;;;;;;8.80;5.03;;;8.00;99.90;;;;;;4945706;28;20486;-71
2023/05/27 03:48:22;;;;;;;8.70;4.93;;;8.00;99.90;;;;;;4951552;28;20480;-71
2023/05/27 03:50:50;;;;;;;8.97;5.23;;;8.10;99.90;;;;;;4945322;28;20477;-71
2023/05/27 03:53:18;;;;;;;11.17;5.30;;;8.10;99.90;;;;;;4939375;28;20497;-71
2023/05/27 03:55:48;;;;;;;11.53;5.80;;;8.10;99.90;;;;;;4943909;28;20717;-71
2023/05/27 03:58:16;;;;;;;9.07;5.60;;;8.10;99.90;;;;;;4945669;28;20501;-70
2023/05/27 04:00:44;;;;;;;9.30;5.10;;;8.00;99.90;;;;;;4948828;28;20470;-70
2023/05/27 04:03:12;;;;;;;9.50;5.13;;;8.00;99.90;;;;;;4947792;28;20478;-69
2023/05/27 04:05:41;;;;;;;11.07;5.30;;;8.00;99.90;;;;;;4949631;28;21117;-70
2023/05/27 04:08:09;;;;;;;9.80;6.00;;;8.00;99.90;;;;;;4957521;28;20605;-71
2023/05/27 04:10:37;;;;;;;8.30;5.10;;;8.00;99.90;;;;;;4950452;28;20505;-71
2023/05/27 04:13:06;;;;;;;12.70;6.27;;;8.00;99.90;;;;;;4947252;28;21508;-71
2023/05/27 04:15:35;;;;;;;11.30;5.40;;;8.00;99.90;;;;;;4946552;28;20992;-71
2023/05/27 04:18:03;;;;;;;10.70;6.63;;;8.10;99.90;;;;;;4946607;28;20478;-70
2023/05/27 04:20:36;;;;;;;11.67;5.00;;;8.10;99.90;;;;;;4946076;28;20502;-71
2023/05/27 04:23:04;;;;;;;9.90;5.30;;;8.10;99.90;;;;;;4950125;28;20467;-71
2023/05/27 04:25:34;;;;;;;9.97;5.70;;;8.20;99.90;;;;;;4945421;28;21173;-71
2023/05/27 04:28:04;;;;;;;8.90;4.90;;;8.20;99.90;;;;;;4946342;28;20496;-71
2023/05/27 04:30:34;;;;;;;10.87;6.10;;;8.20;99.90;;;;;;4946437;28;20478;-72
2023/05/27 04:33:03;;;;;;;10.70;5.43;;;8.20;99.90;;;;;;4942982;28;20503;-72
2023/05/27 04:35:32;;;;;;;9.30;6.20;;;8.20;99.90;;;;;;4946457;28;20492;-72
2023/05/27 04:38:00;;;;;;;10.70;5.80;;;8.30;99.90;;;;;;4948784;28;21053;-72
2023/05/27 04:40:29;;;;;;;9.60;5.97;;;8.40;99.90;;;;;;4940810;28;20489;-72
2023/05/27 04:42:57;;;;;;;10.13;5.93;;;8.40;99.90;;;;;;4943777;28;20471;-73
2023/05/27 04:45:26;;;;;;;15.00;5.87;;;8.40;99.90;;;;;;4940628;28;20494;-72
2023/05/27 04:47:57;;;;;;;13.23;6.80;;;8.50;99.90;;;;;;4942123;28;20470;-72
2023/05/27 04:50:25;;;;;;;9.93;5.73;;;8.50;99.90;;;;;;4959070;28;21076;-73
2023/05/27 04:52:53;;;;;;;10.77;6.30;;;8.50;99.90;;;;;;4944480;28;20492;-73
2023/05/27 04:55:22;;;;;;;7.50;5.67;;;8.60;99.90;;;;;;4943716;28;20537;-71
2023/05/27 04:57:50;;;;;;;8.97;5.90;;;8.60;99.90;;;;;;4948382;28;20900;-71
2023/05/27 05:00:35;;;;;;;12.57;5.30;;;8.70;99.90;;;;;;4943054;28;20739;-71
2023/05/27 05:03:05;;;;;;;11.20;5.90;;;8.70;99.90;;;;;;4946126;28;20505;-70
2023/05/27 05:05:34;;;;;;;11.17;6.40;;;8.70;99.90;;;;;;4944888;28;20521;-71
2023/05/27 05:08:02;;;;;;;13.20;6.10;;;8.80;99.90;;;;;;4942662;28;20588;-71
2023/05/27 05:10:31;;;;;;;7.90;5.80;;;8.80;99.90;;;;;;4947720;28;20622;-71
2023/05/27 05:12:59;;;;;;;12.27;5.63;;;8.80;99.90;;;;;;4946598;28;20510;-70
2023/05/27 05:15:27;;;;;;;12.07;5.63;;;8.90;99.90;;;;;;4940943;28;20694;-71
2023/05/27 05:17:55;;;;;;;9.10;5.53;;;8.90;99.90;;;;;;4945440;28;20513;-71
2023/05/27 05:20:26;;;;;;;11.70;6.07;;;8.90;99.90;;;;;;4935308;28;20478;-71
2023/05/27 05:22:54;;;;;;;10.33;6.20;;;9.00;99.90;;;;;;4939751;28;20489;-70
2023/05/27 05:25:25;;;;;;;8.83;5.60;;;9.00;99.90;;;;;;4947991;28;20489;-70
2023/05/27 05:27:53;;;;;;;12.37;6.57;;;9.10;99.90;;;;;;4946847;28;24117;-71
2023/05/27 05:30:21;;;;;;;10.30;6.47;;;9.10;99.90;;;;;;4942356;28;20474;-71
2023/05/27 05:32:49;;;;;;;11.27;5.93;;;9.10;99.90;;;;;;4943226;28;20561;-72
2023/05/27 05:35:17;;;;;;;9.80;5.80;;;9.20;99.90;;;;;;4940374;28;20493;-72
2023/05/27 05:37:47;;;;;;;13.47;6.37;;;9.30;99.90;;;;;;4940880;28;22040;-71
2023/05/27 05:40:15;;;;;;;11.70;6.27;;;9.30;99.90;;;;;;4934320;28;20482;-70
2023/05/27 05:42:43;;;;;;;13.50;7.03;;;9.40;99.90;;;;;;4938473;28;20482;-71
2023/05/27 05:45:11;;;;;;;14.63;6.90;;;9.40;99.90;;;;;;4936569;28;20861;-71
2023/05/27 05:47:39;;;;;;;11.87;6.20;;;9.40;99.90;;;;;;4938991;28;20488;-74
2023/05/27 05:50:08;;;;;;;12.03;6.47;;;9.50;99.90;;;;;;4934681;28;20478;-71
2023/05/27 05:52:36;;;;;;;11.20;5.97;;;9.70;99.90;;;;;;4937581;28;20510;-71
2023/05/27 05:55:07;;;;;;;11.33;6.80;;;9.70;99.90;;;;;;4938429;28;21031;-71
2023/05/27 05:57:35;;;;;;;11.17;6.00;;;9.80;99.90;;;;;;4936383;28;20515;-70
2023/05/27 06:00:05;;;;;;;11.63;5.90;;;9.80;99.90;;;;;;4935289;28;20833;-71
2023/05/27 06:02:33;;;;;;;11.90;6.10;;;9.90;99.90;;;;;;4936073;28;20899;-71
2023/05/27 06:05:01;;;;;;;9.90;6.50;;;9.90;99.90;;;;;;4934548;28;20880;-71
2023/05/27 06:07:29;;;;;;;10.10;6.00;;;10.00;99.90;;;;;;4935733;28;20585;-71
2023/05/27 06:09:57;;;;;;;11.50;6.10;;;10.10;99.90;;;;;;4936059;28;20477;-71
2023/05/27 06:12:27;;;;;;;10.33;6.30;;;10.10;99.90;;;;;;4941101;28;20473;-71
2023/05/27 06:14:55;;;;;;;14.00;7.43;;;10.20;99.90;;;;;;4936486;28;20628;-70
2023/05/27 06:17:23;;;;;;;7.40;5.50;;;10.30;99.90;;;;;;4936935;28;20667;-71
2023/05/27 06:19:51;;;;;;;9.47;5.70;;;10.40;99.90;;;;;;4932565;28;21153;-71
2023/05/27 06:22:19;;;;;;;12.97;5.70;;;10.40;99.90;;;;;;4936585;28;20480;-71
2023/05/27 06:24:47;;;;;;;11.33;6.13;;;10.50;99.90;;;;;;4937170;28;20530;-70
2023/05/27 06:27:15;;;;;;;9.77;6.00;;;10.60;99.90;;;;;;4932549;28;20469;-71
2023/05/27 06:29:45;;;;;;;10.43;5.80;;;10.70;99.90;;;;;;4941352;28;20568;-71
2023/05/27 06:32:13;;;;;;;10.93;5.20;;;10.70;99.90;;;;;;4942162;28;22432;-71
2023/05/27 06:34:41;;;;;;;9.20;5.00;;;10.90;99.90;;;;;;4932543;28;21090;-70
2023/05/27 06:37:11;;;;;;;9.13;4.80;;;10.90;99.90;;;;;;4953310;28;20486;-72
2023/05/27 06:39:39;;;;;;;7.83;4.50;;;11.00;99.90;;;;;;4936606;28;20566;-71
2023/05/27 06:42:07;;;;;;;11.20;5.00;;;11.10;99.90;;;;;;4934560;28;21309;-72
2023/05/27 06:44:36;;;;;;;11.10;4.40;;;11.20;99.90;;;;;;4930989;28;20488;-72
2023/05/27 06:47:05;;;;;;;9.97;4.07;;;11.30;99.90;;;;;;4945680;28;20537;-73
2023/05/27 06:49:33;;;;;;;10.23;4.60;;;11.40;99.90;;;;;;4945826;28;20481;-72
2023/05/27 06:52:01;;;;;;;9.20;4.60;;;11.50;99.90;;;;;;4943721;28;20478;-73
2023/05/27 06:54:30;;;;;;;8.23;4.27;;;11.60;99.90;;;;;;4930174;28;20502;-73
2023/05/27 06:56:58;;;;;;;10.77;4.90;;;11.70;99.90;;;;;;4935165;28;20810;-73
2023/05/27 06:59:27;;;;;;;9.30;4.10;;;11.70;99.90;;;;;;4919557;28;21779;-74
2023/05/27 07:01:56;;;;;;;11.30;4.70;;;11.80;99.90;;;;;;4925268;28;20794;-72
2023/05/27 07:04:25;;;;;;;11.33;4.60;;;12.00;99.90;;;;;;4914726;28;20513;-72
2023/05/27 07:06:53;;;;;;;9.57;4.70;;;12.10;99.90;;;;;;4911265;28;20978;-72
2023/05/27 07:09:21;;;;;;;9.70;4.80;;;12.20;99.90;;;;;;4923236;28;20478;-72
2023/05/27 07:11:49;;;;;;;10.93;4.60;;;12.30;99.90;;;;;;4917914;28;21184;-72
2023/05/27 07:14:17;;;;;;;12.50;4.63;;;12.40;99.90;;;;;;4921712;28;20494;-71
2023/05/27 07:16:45;;;;;;;10.63;6.77;;;12.40;99.90;;;;;;4923746;28;20654;-73
2023/05/27 07:19:13;;;;;;;6.97;5.00;;;12.50;99.90;;;;;;4940375;28;20954;-72
2023/05/27 07:21:43;;;;;;;7.17;4.17;;;12.60;99.90;;;;;;4943373;28;20743;-71
2023/05/27 07:24:11;;;;;;;9.83;4.37;;;12.70;99.90;;;;;;4952595;28;20521;-72
2023/05/27 07:26:41;;;;;;;10.43;4.97;;;12.80;99.90;;;;;;4938918;28;20522;-72
2023/05/27 07:29:10;;;;;;;9.27;4.53;;;12.90;99.90;;;;;;4935128;28;20606;-72
2023/05/27 07:31:38;;;;;;;8.40;4.80;;;12.90;99.90;;;;;;4946627;28;20474;-71
2023/05/27 07:34:06;;;;;;;11.60;4.83;;;13.00;99.90;;;;;;4953072;28;20925;-71
2023/05/27 07:36:35;;;;;;;9.23;4.33;;;13.10;99.90;;;;;;4941803;28;20522;-71
2023/05/27 07:39:05;;;;;;;10.13;4.43;;;13.20;99.90;;;;;;4943623;28;20478;-71
2023/05/27 07:41:33;;;;;;;7.57;4.00;;;13.30;99.90;;;;;;4941750;28;20534;-69
2023/05/27 07:44:01;;;;;;;15.23;4.93;;;13.40;99.90;;;;;;4943821;28;22488;-73
2023/05/27 07:46:30;;;;;;;5.03;3.70;;;13.50;99.90;;;;;;4942696;28;21750;-71
2023/05/27 07:48:58;;;;;;;8.67;3.80;;;13.50;99.90;;;;;;4940802;28;20475;-71
2023/05/27 07:51:26;;;;;;;12.30;4.50;;;13.50;99.90;;;;;;4936407;28;20506;-69
2023/05/27 07:53:56;;;;;;;8.33;4.40;;;13.50;99.90;;;;;;4925698;28;20502;-70
2023/05/27 07:56:25;;;;;;;8.90;3.97;;;13.60;99.90;;;;;;4935181;28;20572;-68
2023/05/27 07:58:54;;;;;;;8.20;4.63;;;13.60;99.90;;;;;;4941366;28;20509;-71
2023/05/27 08:01:24;;;;;;;9.27;4.43;;;13.70;99.90;;;;;;4935769;28;21335;-69
2023/05/27 08:03:52;;;;;;;8.53;4.20;;;13.80;99.90;;;;;;4935126;28;20575;-69
2023/05/27 08:06:21;;;;;;;6.80;3.40;;;13.80;99.90;;;;;;4935367;28;20493;-69
2023/05/27 08:08:48;;;;;;;9.93;4.03;;;13.90;99.90;;;;;;4929963;28;20469;-70
2023/05/27 08:11:16;;;;;;;8.30;4.30;;;14.00;99.90;;;;;;4916243;28;20482;-70
2023/05/27 08:13:46;;;;;;;10.50;4.80;;;14.00;99.90;;;;;;4925271;28;20502;-70
2023/05/27 08:16:14;;;;;;;7.63;3.93;;;14.10;99.90;;;;;;4936316;28;20501;-69
2023/05/27 08:18:42;;;;;;;7.70;4.00;;;14.20;99.90;;;;;;4928473;28;20819;-70
2023/05/27 08:21:10;;;;;;;11.80;4.23;;;14.30;99.90;;;;;;4938974;28;20478;-69
2023/05/27 08:23:38;;;;;;;7.03;3.77;;;14.40;99.90;;;;;;4919800;28;20513;-70
2023/05/27 08:26:07;;;;;;;9.30;3.90;;;14.50;99.90;;;;;;4923903;28;22185;-70
2023/05/27 08:28:36;;;;;;;9.40;4.13;;;14.70;99.90;;;;;;4934539;28;20556;-70
2023/05/27 08:31:10;;;;;;;7.43;4.60;;;14.80;99.90;;;;;;4937739;28;20664;-69
2023/05/27 08:33:38;;;;;;;5.90;3.40;;;14.90;99.90;;;;;;4918930;28;20608;-69
2023/05/27 08:36:07;;;;;;;7.40;3.63;;;15.00;99.90;;;;;;4920476;28;20494;-69
2023/05/27 08:38:35;;;;;;;7.23;4.13;;;15.10;99.90;;;;;;4919397;28;20985;-69
2023/05/27 08:41:03;;;;;;;10.03;4.57;;;15.10;99.90;;;;;;4921426;28;20541;-69
2023/05/27 08:43:31;;;;;;;7.63;4.43;;;15.20;99.90;;;;;;4933425;28;21153;-69
2023/05/27 08:45:59;;;;;;;8.80;4.70;;;15.30;99.90;;;;;;4925561;28;20569;-69
2023/05/27 08:48:29;;;;;;;8.50;4.20;;;15.40;99.90;;;;;;4919252;28;20517;-70
2023/05/27 08:50:59;;;;;;;14.10;4.40;;;15.40;99.90;;;;;;4940196;28;20470;-69
2023/05/27 08:53:27;;;;;;;8.93;3.70;;;15.40;99.90;;;;;;4945290;28;21098;-69
2023/05/27 08:55:57;;;;;;;9.10;3.93;;;15.40;99.90;;;;;;4938593;28;20870;-69
2023/05/27 08:58:26;;;;;;;11.73;4.37;;;15.50;99.90;;;;;;4956914;28;20470;-69
2023/05/27 09:00:55;;;;;;;7.67;3.90;;;15.70;99.90;;;;;;4944124;28;20574;-69
2023/05/27 09:03:23;;;;;;;8.00;4.37;;;15.80;99.90;;;;;;4930827;28;20501;-69
2023/05/27 09:05:53;;;;;;;12.00;4.47;;;15.90;99.90;;;;;;4924798;28;21013;-69
2023/05/27 09:08:21;;;;;;;11.57;4.60;;;15.90;99.90;;;;;;4935853;28;20567;-69
2023/05/27 09:10:49;;;;;;;7.20;3.77;;;16.00;99.90;;;;;;4934097;28;20482;-68
2023/05/27 09:13:27;;;;;;;8.53;4.37;;;16.20;99.90;;;;;;4926415;28;20990;-68
2023/05/27 09:16:00;;;;;;;10.70;5.43;;;16.30;99.90;;;;;;4932548;28;20692;-68
2023/05/27 09:18:30;;;;;;;9.50;4.43;;;16.40;99.90;;;;;;4940720;28;20563;-68
2023/05/27 09:21:00;;;;;;;9.27;4.30;;;16.50;99.90;;;;;;4938359;28;20474;-68
2023/05/27 09:23:28;;;;;;;7.50;4.17;;;16.60;99.90;;;;;;4928227;28;20581;-69
2023/05/27 09:25:57;;;;;;;7.70;3.53;;;16.70;99.90;;;;;;4936130;28;21173;-69
2023/05/27 09:28:26;;;;;;;7.73;3.90;;;16.90;99.90;;;;;;4933095;28;20484;-70
2023/05/27 09:31:02;;;;;;;8.60;4.30;;;17.00;99.90;;;;;;4933303;28;21540;-72
2023/05/27 09:33:33;;;;;;;9.10;4.43;;;17.10;99.90;;;;;;4925662;28;21089;-70
2023/05/27 09:36:03;;;;;;;7.67;4.33;;;17.10;99.90;;;;;;4937572;28;21307;-69
2023/05/27 09:38:32;;;;;;;9.60;4.37;;;17.10;99.90;;;;;;4939181;28;20470;-70
2023/05/27 09:41:01;;;;;;;10.60;5.10;;;17.20;99.90;;;;;;4940421;28;20558;-70
2023/05/27 09:43:30;;;;;;;13.47;5.70;;;17.30;99.90;;;;;;4933724;28;20499;-70
2023/05/27 09:46:01;;;;;;;9.10;4.07;;;17.30;99.90;;;;;;4941091;28;20491;-70
2023/05/27 09:48:31;;;;;;;4.87;3.87;;;17.10;99.90;;;;;;4927781;28;20486;-70
2023/05/27 09:51:00;;;;;;;8.43;4.33;;;17.00;99.90;;;;;;4933325;28;20680;-70
2023/05/27 09:53:30;;;;;;;9.03;4.30;;;17.00;99.90;;;;;;4940894;28;20514;-69
2023/05/27 09:55:59;;;;;;;8.20;4.03;;;17.10;99.90;;;;;;4932150;28;20501;-70
2023/05/27 09:58:27;;;;;;;6.40;4.07;;;17.10;99.90;;;;;;4933559;28;22294;-71
2023/05/27 10:00:58;;;;;;;9.07;4.70;;;17.20;99.90;;;;;;4941197;28;20485;-70
2023/05/27 10:03:28;;;;;;;10.17;4.53;;;17.30;99.90;;;;;;4933594;28;21906;-70
2023/05/27 10:05:57;;;;;;;7.50;4.63;;;17.40;99.90;;;;;;4945035;28;21644;-70
2023/05/27 10:08:26;;;;;;;6.33;4.30;;;17.60;99.90;;;;;;4937924;28;20474;-70
2023/05/27 10:10:57;;;;;;;9.37;4.50;;;17.80;99.90;;;;;;4940989;28;20493;-71
2023/05/27 10:13:26;;;;;;;6.00;4.33;;;17.90;99.90;;;;;;4935642;28;20498;-71
2023/05/27 10:15:54;;;;;;;8.77;4.80;;;18.00;99.90;;;;;;4927639;28;20530;-70
2023/05/27 10:18:24;;;;;;;6.90;4.40;;;18.00;99.90;;;;;;4932480;28;21529;-71
2023/05/27 10:20:53;;;;;;;7.67;4.80;;;18.00;99.90;;;;;;4945946;28;20502;-70
2023/05/27 10:23:26;;;;;;;8.37;4.03;;;18.00;99.90;;;;;;4938800;28;20482;-70
2023/05/27 10:25:57;;;;;;;7.70;4.50;;;18.00;99.90;;;;;;4952548;28;20494;-70
2023/05/27 10:28:31;;;;;;;10.43;4.43;;;18.00;99.90;;;;;;4950269;28;20863;-70
2023/05/27 10:31:09;;;;;;;10.40;4.67;;;17.90;99.90;;;;;;4943736;28;20475;-69
2023/05/27 10:33:39;;;;;;;9.27;4.57;;;17.80;99.90;;;;;;4944485;28;20507;-69
2023/05/27 10:36:11;;;;;;;10.00;4.90;;;17.80;99.90;;;;;;4946345;28;21126;-69
2023/05/27 10:38:40;;;;;;;7.87;4.70;;;17.80;99.90;;;;;;4951920;28;20908;-70
2023/05/27 10:41:10;;;;;;;8.50;4.50;;;17.70;99.90;;;;;;4943295;28;20860;-69
2023/05/27 10:43:41;;;;;;;8.60;4.30;;;17.70;99.90;;;;;;4941258;28;20596;-69
2023/05/27 10:46:10;;;;;;;6.90;4.07;;;17.70;99.90;;;;;;4920335;28;20507;-71
2023/05/27 10:48:39;;;;;;;6.50;4.63;;;17.80;99.90;;;;;;4919609;28;20570;-70
2023/05/27 10:51:08;;;;;;;9.00;4.73;;;18.00;99.90;;;;;;4919010;28;20474;-70
2023/05/27 10:53:37;;;;;;;9.33;4.47;;;18.20;99.90;;;;;;4921359;28;21910;-71
2023/05/27 10:56:06;;;;;;;7.00;4.73;;;18.40;99.90;;;;;;4935146;28;20490;-70
2023/05/27 10:58:37;;;;;;;7.47;4.80;;;18.60;99.90;;;;;;4918710;28;20482;-67
2023/05/27 11:01:11;;;;;;;9.67;4.40;;;18.80;99.90;;;;;;4928252;28;20664;-70
2023/05/27 11:03:44;;;;;;;5.53;3.77;;;18.90;99.90;;;;;;4927769;28;20569;-69
2023/05/27 11:06:14;;;;;;;5.73;4.30;;;19.00;99.90;;;;;;4915420;28;20603;-69
2023/05/27 11:08:43;;;;;;;10.40;4.57;;;19.00;99.90;;;;;;4902621;28;20474;-69
2023/05/27 11:11:13;;;;;;;7.67;4.10;;;18.90;99.90;;;;;;4911413;28;20581;-69
2023/05/27 11:13:43;;;;;;;7.03;4.90;;;18.80;99.90;;;;;;4933762;28;20545;-63
2023/05/27 11:16:16;;;;;;;6.10;4.30;;;18.70;99.90;;;;;;4942305;28;20494;-67
2023/05/27 11:18:46;;;;;;;8.17;4.23;;;18.70;99.90;;;;;;4943115;28;20478;-67
2023/05/27 11:21:16;;;;;;;8.60;4.27;;;18.80;99.90;;;;;;4958528;28;21025;-69
2023/05/27 11:23:46;;;;;;;10.53;4.10;;;18.90;99.90;;;;;;4945678;28;20511;-68
2023/05/27 11:26:15;;;;;;;5.93;3.60;;;19.10;99.90;;;;;;4935240;28;20495;-68
2023/05/27 11:28:49;;;;;;;6.33;4.17;;;19.40;99.90;;;;;;4916662;28;21373;-69
2023/05/27 11:31:19;;;;;;;6.80;3.70;;;19.50;99.90;;;;;;4933637;28;22342;-66
2023/05/27 11:33:50;;;;;;;7.83;4.83;;;19.50;99.90;;;;;;4907095;28;20508;-66
2023/05/27 11:36:20;;;;;;;7.10;4.43;;;19.50;99.90;;;;;;4907625;28;20494;-68
2023/05/27 11:38:53;;;;;;;9.50;4.40;;;19.50;99.90;;;;;;4913787;28;20560;-67
2023/05/27 11:41:22;;;;;;;7.53;4.60;;;19.40;99.90;;;;;;4926266;28;20506;-67
2023/05/27 11:43:55;;;;;;;5.60;4.10;;;19.30;99.90;;;;;;4915482;28;20503;-68
2023/05/27 11:46:24;;;;;;;9.60;4.90;;;19.20;99.90;;;;;;4924267;28;20501;-67
2023/05/27 11:48:53;;;;;;;6.10;4.53;;;19.20;99.90;;;;;;4929128;28;20477;-67
2023/05/27 11:51:29;;;;;;;7.60;4.90;;;19.20;99.90;;;;;;4928156;28;20469;-70
2023/05/27 11:54:00;;;;;;;6.03;4.03;;;19.30;99.90;;;;;;4916894;28;20505;-68
2023/05/27 11:56:29;;;;;;;6.37;4.60;;;19.50;99.90;;;;;;4918496;28;20490;-68
2023/05/27 11:58:59;;;;;;;8.57;4.13;;;19.80;99.90;;;;;;4944922;28;20639;-69
2023/05/27 12:01:27;;;;;;;4.80;3.53;;;20.10;99.90;;;;;;4935279;28;20471;-68
2023/05/27 12:03:55;;;;;;;8.80;4.27;;;20.30;99.90;;;;;;4907181;28;20538;-70
2023/05/27 12:06:23;;;;;;;10.23;5.23;;;20.50;99.90;;;;;;4928604;28;20495;-70
2023/05/27 12:08:51;;;;;;;7.33;4.27;;;20.70;99.90;;;;;;4916666;28;20579;-70
2023/05/27 12:11:20;;;;;;;5.43;4.20;;;20.80;99.90;;;;;;4917102;28;20488;-72
2023/05/27 12:13:48;;;;;;;7.90;4.93;;;20.90;99.90;;;;;;4918801;28;20533;-70
2023/05/27 12:16:17;;;;;;;7.40;4.03;;;20.90;99.90;;;;;;4925739;28;20493;-70
2023/05/27 12:18:45;;;;;;;9.87;5.40;;;20.90;99.90;;;;;;4915016;28;20505;-70
2023/05/27 12:21:13;;;;;;;8.87;4.67;;;20.90;99.90;;;;;;4934554;28;20554;-66
2023/05/27 12:23:41;;;;;;;7.80;3.80;;;20.80;99.90;;;;;;4923039;28;20498;-62
2023/05/27 12:26:10;;;;;;;7.33;4.30;;;20.90;99.90;;;;;;4926908;28;20497;-63
2023/05/27 12:28:38;;;;;;;8.10;4.10;;;20.90;99.90;;;;;;4938401;28;20906;-66
2023/05/27 12:31:06;;;;;;;6.73;4.27;;;21.00;99.90;;;;;;4938734;28;20486;-65
2023/05/27 12:33:37;;;;;;;8.70;4.87;;;21.20;99.90;;;;;;4932020;28;20588;-65
2023/05/27 12:36:06;;;;;;;7.03;4.30;;;21.30;99.90;;;;;;4934983;28;20977;-65
2023/05/27 12:38:34;;;;;;;9.87;4.73;;;21.40;99.90;;;;;;4933436;28;20499;-65
2023/05/27 12:41:03;;;;;;;7.30;4.60;;;21.50;99.90;;;;;;4930654;28;20565;-65
2023/05/27 12:43:31;;;;;;;6.83;4.57;;;21.50;99.90;;;;;;4933358;28;20499;-64
2023/05/27 12:45:59;;;;;;;7.30;4.37;;;21.50;99.90;;;;;;4932215;28;21076;-66
2023/05/27 12:48:27;;;;;;;9.10;4.40;;;21.60;99.90;;;;;;4931012;28;20466;-65
2023/05/27 12:50:57;;;;;;;6.57;4.10;;;21.60;99.90;;;;;;4928695;28;20596;-65
2023/05/27 12:53:25;;;;;;;6.63;4.70;;;21.70;99.90;;;;;;4931368;28;20512;-66
2023/05/27 12:55:53;;;;;;;8.57;4.63;;;21.70;99.30;;;;;;4931449;28;20771;-63
2023/05/27 12:58:21;;;;;;;10.43;6.43;;;21.70;96.60;;;;;;4928918;28;20555;-63